Elkhorn City, KY (41522)

7:02 AM EDT on March 27, 2017 (GMT -0400)
Elkhorn City | | Change Station

Elev 1000 ft 37.30 °N, 82.35 °W | Updated 2 seconds ago

Partly Cloudy
Partly Cloudy
50.0 °F
Feels Like 50.0 °F
N
0.0
Wind Variable Wind from SSE
Gusts 0.0 mph

Today
High -- | Low -- °F
--% Chance of Precip.
Yesterday
High -- | Low -- °F
Precip. -- in
Pressure 30.08 in
Visibility 10.0 miles
Clouds Mostly Cloudy 3300 ft
Mostly Cloudy 4700 ft
Mostly Cloudy 6000 ft
Dew Point 50 °F
Humidity 98%
Rainfall 0.00 in
Snow Depth Not available.
7:22 AM 7:47 PM
Waning Crescent, 1% visible
METAR KLNP 271030Z AUTO 19003KT 10SM BKN033 BKN047 BKN060 13/10 A3008 RMK AO2
Pressure 30.08 in
Visibility 10.0 miles
Clouds Mostly Cloudy 3300 ft
Mostly Cloudy 4700 ft
Mostly Cloudy 6000 ft
Dew Point 50 °F
Humidity 98%
Rainfall 0.00 in
Snow Depth Not available.
7:22 AM 7:47 PM
Waning Crescent, 1% visible
METAR KLNP 271030Z AUTO 19003KT 10SM BKN033 BKN047 BKN060 13/10 A3008 RMK AO2

Get Severe Weather Alerts

Thanks for signing up!

Be on the lookout for a verification email in your inbox.

You'll start receiving the daily forecast at 8 AM.

×

10-Day Weather Forecast

Almanac

Astronomy

Mar. 27, 2017 Rise Set
Actual Time
Civil Twilight
Nautical Twilight
Astronomical Twilight
Moon
Length of Visible Light
Length of Day
Tomorrow will be .
, % of the Moon is Illuminated

Today's Extremes

State Highs State Lows

Community

WunderPhotos

Upload Photos

1,962,540 photos uploaded!

WunderBlog® & News

Nearby

Air Quality

  Air Quality AQ Index Pollutant
Not available.

Snow Depth

Station Depth Elevation

Earthquake Activity

City Distance Mag. Time & Date
Minimum magnitude displayed is 2.5.

Earthquake Activity

City Distance Mag. Time & Date
Minimum magnitude displayed is 2.5.

Coastal Water Temperatures

Place Temperature

Stations

Nearby Weather Stations

Station Location Temp. Windchill Dew Point Humidity Wind Precip. Elev Updated Type
                   

Watches & Warnings

There are currently no watches in effect.